Time;durP1;ratioP1;P1;durP2;ratioP2;P2;SDS_P1;SDS_P2;PMS_P1;PMS_P2;Temp;Humidity;BMP_temperature;BMP_pressure;BME280_temperature;BME280_humidity;BME280_pressure;Samples;Min_cycle;Max_cycle;Signal;HPM_P1;HPM_P2
2021/03/29 00:00:23;;;;;;;7.77;3.87;;;12.60;22.50;;;;;;4993532;28;20448;-66
2021/03/29 00:02:49;;;;;;;4.10;3.70;;;12.80;22.80;;;;;;4992457;28;20464;-67
2021/03/29 00:05:17;;;;;;;6.20;4.77;;;12.70;23.00;;;;;;4993048;28;20459;-68
2021/03/29 00:07:47;;;;;;;4.93;4.40;;;12.70;23.30;;;;;;4992267;28;20444;-67
2021/03/29 00:10:14;;;;;;;5.40;4.10;;;12.70;23.30;;;;;;4993377;28;20483;-67
2021/03/29 00:12:43;;;;;;;5.77;4.50;;;12.80;23.00;;;;;;4993482;28;20451;-67
2021/03/29 00:15:12;;;;;;;5.53;4.53;;;12.80;23.00;;;;;;4997631;28;20490;-65
2021/03/29 00:17:40;;;;;;;4.90;4.27;;;12.90;23.00;;;;;;4995830;28;20459;-66
2021/03/29 00:20:28;;;;;;;7.50;4.40;;;12.80;23.20;;;;;;4996485;28;20455;-66
2021/03/29 00:22:58;;;;;;;5.00;3.73;;;12.80;23.00;;;;;;4996089;28;20814;-66
2021/03/29 00:25:26;;;;;;;4.87;4.37;;;12.90;23.00;;;;;;4995857;28;21040;-66
2021/03/29 00:27:51;;;;;;;4.80;4.40;;;13.00;23.00;;;;;;4995727;28;20972;-67
2021/03/29 00:30:44;;;;;;;7.10;4.47;;;13.00;22.90;;;;;;5027319;28;20483;-66
2021/03/29 00:33:11;;;;;;;8.13;4.57;;;13.00;22.80;;;;;;4993613;28;20233;-66
2021/03/29 00:35:38;;;;;;;8.97;4.60;;;12.90;22.80;;;;;;4995136;28;20442;-66
2021/03/29 00:38:08;;;;;;;4.53;4.10;;;12.90;22.90;;;;;;4996101;28;20472;-66
2021/03/29 00:40:36;;;;;;;4.83;3.90;;;12.80;23.30;;;;;;4995921;28;20440;-67
2021/03/29 00:43:10;;;;;;;4.23;3.93;;;12.80;23.30;;;;;;4995795;28;20880;-66
2021/03/29 00:45:37;;;;;;;5.67;4.10;;;12.70;23.40;;;;;;4995921;28;20502;-65
2021/03/29 00:48:03;;;;;;;5.23;4.23;;;12.90;23.40;;;;;;4996097;28;20452;-66
2021/03/29 00:50:50;;;;;;;6.30;4.87;;;12.90;23.20;;;;;;4994920;28;20464;-66
2021/03/29 00:53:16;;;;;;;4.50;4.10;;;12.80;23.20;;;;;;4994868;28;20459;-66
2021/03/29 00:55:43;;;;;;;4.40;3.73;;;12.70;23.30;;;;;;4996712;28;20451;-66
2021/03/29 00:58:10;;;;;;;5.30;3.57;;;12.70;23.30;;;;;;4993671;28;21712;-67
2021/03/29 01:01:07;;;;;;;4.83;3.50;;;12.60;23.60;;;;;;4996839;28;20452;-66
2021/03/29 01:03:35;;;;;;;7.93;4.37;;;12.50;23.50;;;;;;4990739;28;20535;-67
2021/03/29 01:06:11;;;;;;;5.30;4.57;;;12.40;24.10;;;;;;4994216;28;20456;-66
2021/03/29 01:08:41;;;;;;;6.57;4.10;;;12.40;24.00;;;;;;4996011;28;20990;-66
2021/03/29 01:11:11;;;;;;;4.67;3.90;;;12.40;24.70;;;;;;4994481;28;21147;-65
2021/03/29 01:13:44;;;;;;;4.70;4.00;;;12.30;24.20;;;;;;4995833;28;20452;-66
2021/03/29 01:16:12;;;;;;;4.83;3.83;;;12.20;24.70;;;;;;4995103;28;20444;-65
2021/03/29 01:18:42;;;;;;;5.73;4.40;;;12.20;24.70;;;;;;4995667;28;20444;-67
2021/03/29 01:21:23;;;;;;;4.45;3.95;;;12.00;24.60;;;;;;4994312;28;20448;-66
2021/03/29 01:23:52;;;;;;;4.83;3.87;;;12.10;24.70;;;;;;4993645;28;20452;-66
2021/03/29 01:26:37;;;;;;;5.70;4.60;;;12.00;24.60;;;;;;5026891;28;20447;-66
2021/03/29 01:29:04;;;;;;;4.40;4.00;;;12.00;24.60;;;;;;4984634;28;20447;-66
2021/03/29 01:31:30;;;;;;;4.23;3.83;;;12.10;25.00;;;;;;4996283;28;20534;-66
2021/03/29 01:33:57;;;;;;;4.30;3.90;;;12.30;24.80;;;;;;4994014;28;21106;-65
2021/03/29 01:36:24;;;;;;;5.73;3.73;;;12.40;24.00;;;;;;5008739;28;20496;-65
2021/03/29 01:38:51;;;;;;;6.07;4.30;;;12.30;24.60;;;;;;4995619;28;21235;-65
2021/03/29 01:41:17;;;;;;;4.30;3.90;;;12.10;24.40;;;;;;4994862;28;20452;-66
2021/03/29 01:43:45;;;;;;;4.43;4.00;;;12.10;24.60;;;;;;4993380;28;20448;-67
2021/03/29 01:46:11;;;;;;;4.80;3.77;;;12.00;24.90;;;;;;4995329;28;20541;-65
2021/03/29 01:48:36;;;;;;;4.73;4.30;;;12.10;24.70;;;;;;4993080;28;20575;-66
2021/03/29 01:51:02;;;;;;;4.10;3.70;;;12.10;24.60;;;;;;4995238;28;20470;-66
2021/03/29 01:53:32;;;;;;;3.80;3.50;;;12.10;24.60;;;;;;4995065;28;20793;-66
2021/03/29 01:55:57;;;;;;;5.67;3.87;;;12.20;24.70;;;;;;4993530;28;20455;-66
2021/03/29 01:58:23;;;;;;;4.00;3.60;;;12.30;24.20;;;;;;4994444;28;20806;-66
2021/03/29 02:00:54;;;;;;;5.03;3.53;;;12.10;24.30;;;;;;4994205;28;20717;-67
2021/03/29 02:03:20;;;;;;;4.27;3.77;;;12.10;24.50;;;;;;4994543;28;20232;-67
2021/03/29 02:05:46;;;;;;;4.40;3.53;;;12.10;24.60;;;;;;4993911;28;20448;-67
2021/03/29 02:08:13;;;;;;;3.40;3.20;;;12.00;24.60;;;;;;4994241;28;20471;-66
2021/03/29 02:10:40;;;;;;;5.10;3.80;;;12.00;24.60;;;;;;4993064;28;20585;-67
2021/03/29 02:13:11;;;;;;;5.87;3.93;;;12.00;24.60;;;;;;4995524;28;20899;-66
2021/03/29 02:15:37;;;;;;;5.20;3.20;;;12.00;24.60;;;;;;4993870;28;21025;-67
2021/03/29 02:18:10;;;;;;;4.33;4.00;;;12.00;24.60;;;;;;4994347;28;20452;-66
2021/03/29 02:20:37;;;;;;;4.17;3.60;;;12.10;24.30;;;;;;4993839;28;20460;-66
2021/03/29 02:23:06;;;;;;;4.30;3.60;;;12.10;24.30;;;;;;4994902;28;20464;-66
2021/03/29 02:25:32;;;;;;;4.17;3.80;;;12.10;24.30;;;;;;4993086;28;20463;-66
2021/03/29 02:28:00;;;;;;;3.77;3.47;;;12.10;24.00;;;;;;4995073;28;20506;-66
2021/03/29 02:30:36;;;;;;;4.93;3.87;;;12.10;24.20;;;;;;4993709;28;20460;-66
2021/03/29 02:33:04;;;;;;;4.27;3.97;;;12.00;24.30;;;;;;4993845;28;20452;-65
2021/03/29 02:35:30;;;;;;;4.70;3.70;;;12.20;24.30;;;;;;4993259;28;20448;-66
2021/03/29 02:37:58;;;;;;;3.70;3.40;;;12.10;23.90;;;;;;4994394;28;21332;-66
2021/03/29 02:40:27;;;;;;;4.60;3.40;;;12.10;24.30;;;;;;4992414;28;20423;-65
2021/03/29 02:42:54;;;;;;;3.93;3.50;;;12.10;24.10;;;;;;4994153;28;20471;-66
2021/03/29 02:45:22;;;;;;;3.87;3.40;;;12.00;24.20;;;;;;4993347;28;20456;-65
2021/03/29 02:47:49;;;;;;;4.70;3.90;;;11.90;24.50;;;;;;4993344;28;20448;-65
2021/03/29 02:50:19;;;;;;;3.73;3.43;;;12.00;24.60;;;;;;4993445;28;20467;-65
2021/03/29 02:52:48;;;;;;;3.97;3.67;;;12.00;24.30;;;;;;4994048;28;20506;-66
2021/03/29 02:55:15;;;;;;;6.00;4.20;;;11.90;24.20;;;;;;4992626;28;21038;-65
2021/03/29 02:57:44;;;;;;;4.53;3.60;;;11.80;24.40;;;;;;4994286;28;20799;-65
2021/03/29 03:00:14;;;;;;;4.60;3.87;;;11.80;24.50;;;;;;4992921;28;20455;-65
2021/03/29 03:02:42;;;;;;;4.20;3.50;;;11.70;24.40;;;;;;4993480;28;20624;-65
2021/03/29 03:05:09;;;;;;;4.90;4.17;;;11.70;24.50;;;;;;4993233;28;21058;-65
2021/03/29 03:07:38;;;;;;;6.10;4.00;;;11.60;24.70;;;;;;4993500;28;20448;-66
2021/03/29 03:10:07;;;;;;;3.97;3.67;;;11.70;24.50;;;;;;4992484;28;21275;-66
2021/03/29 03:12:34;;;;;;;4.03;3.60;;;11.60;24.90;;;;;;4993800;28;20456;-66
2021/03/29 03:14:59;;;;;;;4.30;3.33;;;11.70;24.90;;;;;;4992703;28;20961;-67
2021/03/29 03:17:25;;;;;;;4.27;3.87;;;11.80;24.60;;;;;;4993261;28;20458;-65
2021/03/29 03:19:51;;;;;;;7.23;4.63;;;11.80;24.70;;;;;;4992438;28;20636;-65
2021/03/29 03:22:16;;;;;;;4.87;4.17;;;11.90;24.50;;;;;;4994162;28;20228;-67
2021/03/29 03:24:42;;;;;;;5.17;4.53;;;11.80;24.60;;;;;;4992080;28;20718;-66
2021/03/29 03:27:10;;;;;;;5.33;4.77;;;11.60;25.00;;;;;;4993606;28;20311;-66
2021/03/29 03:29:43;;;;;;;4.17;3.77;;;11.70;25.10;;;;;;4992651;28;20252;-66
2021/03/29 03:32:16;;;;;;;3.57;3.27;;;11.60;25.30;;;;;;4993422;28;20514;-67
2021/03/29 03:34:42;;;;;;;4.30;4.00;;;11.50;25.30;;;;;;4992358;28;20460;-67
2021/03/29 03:37:14;;;;;;;5.13;4.60;;;11.60;25.10;;;;;;4993153;28;20455;-66
2021/03/29 03:39:41;;;;;;;6.30;5.20;;;11.60;25.30;;;;;;4991465;28;20454;-66
2021/03/29 03:42:08;;;;;;;7.00;4.80;;;11.60;25.20;;;;;;4994088;28;20463;-67
2021/03/29 03:44:35;;;;;;;4.60;4.20;;;11.60;24.90;;;;;;4992685;28;20462;-66
2021/03/29 03:47:03;;;;;;;4.60;3.57;;;11.60;24.40;;;;;;4993538;28;20491;-66
2021/03/29 03:49:29;;;;;;;4.17;3.80;;;11.50;24.60;;;;;;4995613;28;20487;-67
2021/03/29 03:51:55;;;;;;;5.53;5.03;;;11.50;24.50;;;;;;4997515;28;20467;-66
2021/03/29 03:54:22;;;;;;;4.27;3.97;;;11.50;24.20;;;;;;4996508;28;20460;-66
2021/03/29 03:56:49;;;;;;;4.47;4.10;;;11.50;24.20;;;;;;4996518;28;20929;-66
2021/03/29 03:59:14;;;;;;;5.13;4.70;;;11.50;24.20;;;;;;4996876;28;20463;-66
2021/03/29 04:02:02;;;;;;;4.97;4.30;;;11.50;24.30;;;;;;4996071;28;20905;-67
2021/03/29 04:04:28;;;;;;;4.23;4.03;;;11.30;24.80;;;;;;4996072;28;20279;-66
2021/03/29 04:06:54;;;;;;;4.93;4.37;;;11.40;25.00;;;;;;4997638;28;21049;-67
2021/03/29 04:09:22;;;;;;;5.60;4.03;;;11.30;25.30;;;;;;4994584;28;20225;-67
2021/03/29 04:11:51;;;;;;;4.53;4.13;;;11.20;25.50;;;;;;4997247;28;20217;-67
2021/03/29 04:14:17;;;;;;;5.30;4.80;;;11.30;25.70;;;;;;4995966;28;20527;-67
2021/03/29 04:16:42;;;;;;;6.93;4.20;;;11.30;25.90;;;;;;4996568;28;20459;-67
2021/03/29 04:19:08;;;;;;;4.53;3.93;;;11.10;25.70;;;;;;4996801;28;20273;-67
2021/03/29 04:21:34;;;;;;;3.87;3.63;;;11.10;26.10;;;;;;4996046;28;20279;-66
2021/03/29 04:23:59;;;;;;;6.43;4.00;;;11.10;26.10;;;;;;4996732;28;20224;-65
2021/03/29 04:26:25;;;;;;;5.00;4.00;;;11.10;26.20;;;;;;4995339;28;20456;-66
2021/03/29 04:28:50;;;;;;;3.90;3.60;;;11.20;25.90;;;;;;5007152;28;20312;-66
2021/03/29 04:31:16;;;;;;;5.30;4.40;;;11.20;25.90;;;;;;5018168;28;20707;-69
2021/03/29 04:33:42;;;;;;;6.20;5.60;;;11.10;26.00;;;;;;4998977;28;20229;-68
2021/03/29 04:36:07;;;;;;;7.10;4.70;;;11.20;26.20;;;;;;4997931;28;20233;-67
2021/03/29 04:38:33;;;;;;;5.37;4.97;;;11.40;26.00;;;;;;4997358;28;20229;-66
2021/03/29 04:40:58;;;;;;;5.63;4.33;;;11.30;25.70;;;;;;4995040;28;20236;-66
2021/03/29 04:43:24;;;;;;;4.67;4.00;;;11.40;25.60;;;;;;4997668;28;20256;-67
2021/03/29 04:45:50;;;;;;;7.00;4.73;;;11.30;25.60;;;;;;4999040;28;20232;-67
2021/03/29 04:48:16;;;;;;;5.00;4.60;;;11.30;25.70;;;;;;5004914;28;20657;-67
2021/03/29 04:50:41;;;;;;;6.97;4.93;;;11.40;25.80;;;;;;5003798;28;20232;-68
2021/03/29 04:53:07;;;;;;;6.43;4.40;;;11.40;25.70;;;;;;5002877;28;20236;-67
2021/03/29 04:55:32;;;;;;;4.30;4.00;;;11.30;25.50;;;;;;5016880;28;20247;-68
2021/03/29 04:57:58;;;;;;;5.43;4.30;;;11.30;25.40;;;;;;5008927;28;20225;-68
2021/03/29 05:00:24;;;;;;;7.40;6.70;;;11.30;25.60;;;;;;5001871;28;20229;-67
2021/03/29 05:02:49;;;;;;;22.50;17.77;;;11.40;25.30;;;;;;5000917;28;20237;-66
2021/03/29 05:05:15;;;;;;;5.30;4.87;;;11.50;25.10;;;;;;4996785;28;20257;-66
2021/03/29 05:07:40;;;;;;;5.17;4.53;;;11.50;24.60;;;;;;4995421;28;20229;-66
2021/03/29 05:10:10;;;;;;;6.70;4.37;;;11.40;24.30;;;;;;5004311;28;20691;-66
2021/03/29 05:12:36;;;;;;;4.93;4.43;;;11.50;24.80;;;;;;5014626;28;20228;-66
2021/03/29 05:15:02;;;;;;;4.07;3.77;;;11.50;24.20;;;;;;5015547;28;20504;-67
2021/03/29 05:17:28;;;;;;;6.70;3.80;;;11.40;24.50;;;;;;5013324;28;20228;-67
2021/03/29 05:19:53;;;;;;;4.17;3.60;;;11.60;24.30;;;;;;5014497;28;20454;-69
2021/03/29 05:22:19;;;;;;;7.63;4.70;;;11.60;24.30;;;;;;5014986;28;20240;-69
2021/03/29 05:24:44;;;;;;;6.03;4.40;;;11.70;24.40;;;;;;5014659;28;20290;-67
2021/03/29 05:27:10;;;;;;;8.73;4.17;;;11.80;24.50;;;;;;5017255;28;20699;-68
2021/03/29 05:29:42;;;;;;;6.43;4.60;;;11.80;25.00;;;;;;5017027;28;20282;-67
2021/03/29 05:32:14;;;;;;;9.33;4.50;;;11.80;25.10;;;;;;5017821;28;20220;-66
2021/03/29 05:34:40;;;;;;;5.73;4.60;;;11.70;24.50;;;;;;5000117;28;20566;-66
2021/03/29 05:37:06;;;;;;;6.30;4.80;;;11.70;24.70;;;;;;5014920;28;20509;-68
2021/03/29 05:39:32;;;;;;;5.37;4.90;;;11.80;24.50;;;;;;5011641;28;20984;-68
2021/03/29 05:41:57;;;;;;;7.23;5.10;;;11.70;24.20;;;;;;4998927;28;20235;-68
2021/03/29 05:44:24;;;;;;;5.10;3.93;;;11.80;24.30;;;;;;5002517;28;20546;-71
2021/03/29 05:46:50;;;;;;;6.20;5.40;;;11.60;23.90;;;;;;5013451;28;20228;-68
2021/03/29 05:49:15;;;;;;;4.97;4.30;;;11.70;24.40;;;;;;5016904;28;20450;-67
2021/03/29 05:51:41;;;;;;;10.00;4.37;;;11.70;25.50;;;;;;5015933;28;20234;-69
2021/03/29 05:54:08;;;;;;;5.17;4.27;;;11.90;32.10;;;;;;5018927;28;20258;-67
2021/03/29 05:56:35;;;;;;;4.90;4.10;;;12.70;37.00;;;;;;5018362;28;20220;-67
2021/03/29 06:02:01;;;;;;;5.20;4.00;;;13.00;31.30;;;;;;4995808;28;20484;-71
2021/03/29 06:04:49;;;;;;;6.70;3.83;;;13.10;27.20;;;;;;4971983;28;20459;-71
2021/03/29 06:07:18;;;;;;;5.73;4.57;;;12.90;25.60;;;;;;4995446;28;20476;-71
2021/03/29 06:09:45;;;;;;;4.60;4.20;;;13.20;25.40;;;;;;4993499;28;20463;-71
2021/03/29 06:12:12;;;;;;;6.90;4.00;;;12.90;22.70;;;;;;4995489;28;20461;-67
2021/03/29 06:14:38;;;;;;;6.53;4.43;;;12.60;23.00;;;;;;4994205;28;20440;-67
2021/03/29 06:17:07;;;;;;;6.37;5.63;;;12.30;23.00;;;;;;4994755;28;20448;-66
2021/03/29 06:19:33;;;;;;;5.33;4.50;;;12.20;23.30;;;;;;4995893;28;20471;-67
2021/03/29 06:22:09;;;;;;;7.20;4.90;;;12.20;23.40;;;;;;4993821;28;20852;-66
2021/03/29 06:25:04;;;;;;;4.77;4.33;;;12.20;23.40;;;;;;4994601;28;20707;-67
2021/03/29 06:27:39;;;;;;;4.90;4.60;;;12.20;23.70;;;;;;4993956;28;20436;-67
2021/03/29 06:30:20;;;;;;;5.77;5.27;;;12.30;23.20;;;;;;4995916;28;20456;-66
2021/03/29 06:32:56;;;;;;;6.37;4.43;;;12.10;23.20;;;;;;4994195;28;20501;-67
2021/03/29 06:35:26;;;;;;;15.67;10.27;;;12.20;23.60;;;;;;4996005;28;20498;-66
2021/03/29 06:38:01;;;;;;;7.67;5.00;;;12.10;23.70;;;;;;4992322;28;20657;-67
2021/03/29 06:40:27;;;;;;;8.93;5.00;;;12.10;23.50;;;;;;4995300;28;21143;-68
2021/03/29 06:42:52;;;;;;;17.40;4.97;;;12.10;23.30;;;;;;4995960;28;20459;-67
2021/03/29 06:45:18;;;;;;;8.50;4.67;;;12.20;22.90;;;;;;4995904;28;20734;-66
2021/03/29 06:47:44;;;;;;;8.10;4.80;;;12.30;22.90;;;;;;4995749;28;20229;-69
2021/03/29 06:50:26;;;;;;;10.13;4.90;;;12.50;22.80;;;;;;4996510;28;20703;-68
2021/03/29 06:52:52;;;;;;;9.73;5.73;;;12.50;22.60;;;;;;4995313;28;20232;-65
2021/03/29 06:55:23;;;;;;;13.23;6.90;;;12.40;23.30;;;;;;4996388;28;20809;-70
2021/03/29 06:58:08;;;;;;;8.70;5.97;;;12.50;22.70;;;;;;5000640;28;20494;-66
2021/03/29 07:00:36;;;;;;;7.47;6.00;;;12.60;23.10;;;;;;5014427;28;20506;-66
2021/03/29 07:03:04;;;;;;;8.30;4.73;;;12.60;22.50;;;;;;5008821;28;20885;-65
2021/03/29 07:05:30;;;;;;;12.00;6.30;;;12.60;23.00;;;;;;5012468;28;20537;-65
2021/03/29 07:08:00;;;;;;;5.93;5.33;;;12.60;22.60;;;;;;5015221;28;20533;-64
2021/03/29 07:10:26;;;;;;;9.10;5.27;;;12.60;22.50;;;;;;5015381;28;20534;-64
2021/03/29 07:12:53;;;;;;;9.53;5.50;;;12.60;23.00;;;;;;5014929;28;21293;-65
2021/03/29 07:15:20;;;;;;;6.93;4.90;;;12.60;22.80;;;;;;4996962;28;20951;-63
2021/03/29 07:17:47;;;;;;;9.43;5.80;;;12.60;23.00;;;;;;4993966;28;20456;-64
2021/03/29 07:20:25;;;;;;;6.80;5.60;;;12.70;22.90;;;;;;4995137;28;20470;-64
2021/03/29 07:22:51;;;;;;;11.50;6.13;;;12.70;23.00;;;;;;4994071;28;21185;-64
2021/03/29 07:25:19;;;;;;;9.10;6.00;;;12.70;22.90;;;;;;4996107;28;20452;-63
2021/03/29 07:27:48;;;;;;;7.33;4.90;;;12.80;22.60;;;;;;4993298;28;20462;-64
2021/03/29 07:30:16;;;;;;;9.80;5.50;;;12.90;22.30;;;;;;5010897;28;20534;-64
2021/03/29 07:32:57;;;;;;;7.93;6.10;;;13.00;22.40;;;;;;5046169;28;20460;-64
2021/03/29 07:35:43;;;;;;;11.30;5.77;;;13.00;22.60;;;;;;5013812;28;20826;-64
2021/03/29 07:38:09;;;;;;;13.40;5.67;;;13.20;21.70;;;;;;5012578;28;20512;-64
2021/03/29 07:40:36;;;;;;;7.50;5.57;;;13.10;21.80;;;;;;5014894;28;21037;-64
2021/03/29 07:43:19;;;;;;;11.70;6.60;;;13.20;22.30;;;;;;5015270;28;20466;-64
2021/03/29 07:45:48;;;;;;;13.70;5.60;;;13.30;22.30;;;;;;5013473;28;20455;-64
2021/03/29 07:48:16;;;;;;;15.13;5.63;;;13.40;22.60;;;;;;5014224;28;21001;-65
2021/03/29 07:50:41;;;;;;;13.00;5.60;;;13.40;22.30;;;;;;5012803;28;20490;-65
2021/03/29 07:53:19;;;;;;;13.50;6.97;;;13.50;21.90;;;;;;5003513;28;20668;-64
2021/03/29 07:55:45;;;;;;;76.40;49.73;;;13.60;22.40;;;;;;5014452;28;20228;-64
2021/03/29 07:58:13;;;;;;;28.73;18.80;;;13.70;22.00;;;;;;5013065;28;20980;-64
2021/03/29 08:00:40;;;;;;;8.77;7.00;;;13.70;22.20;;;;;;5016676;28;20232;-64
2021/03/29 08:03:11;;;;;;;7.50;5.20;;;13.80;21.70;;;;;;5014971;28;20459;-65
2021/03/29 08:05:39;;;;;;;5.20;4.83;;;13.80;21.80;;;;;;5014800;28;21154;-65
2021/03/29 08:08:26;;;;;;;7.93;5.63;;;13.90;21.90;;;;;;5004155;28;20460;-65
2021/03/29 08:11:12;;;;;;;11.97;6.30;;;14.00;21.90;;;;;;5009024;28;20478;-65
2021/03/29 08:13:49;;;;;;;6.93;5.57;;;14.00;22.50;;;;;;5014063;28;20481;-65
2021/03/29 08:16:28;;;;;;;8.37;5.73;;;14.10;21.90;;;;;;5013418;28;20478;-65
2021/03/29 08:19:29;;;;;;;8.87;6.23;;;14.20;22.20;;;;;;5014002;28;20513;-65
2021/03/29 08:21:59;;;;;;;9.30;5.20;;;14.20;21.40;;;;;;5004459;28;20466;-66
2021/03/29 08:24:29;;;;;;;7.70;6.20;;;14.20;21.80;;;;;;5014941;28;20458;-67
2021/03/29 08:27:00;;;;;;;14.73;7.20;;;14.30;21.10;;;;;;5013721;28;20516;-66
2021/03/29 08:29:33;;;;;;;12.03;5.80;;;14.40;21.30;;;;;;5012406;28;20458;-65
2021/03/29 08:32:23;;;;;;;5.70;5.07;;;14.50;21.40;;;;;;5014778;28;20560;-65
2021/03/29 08:34:53;;;;;;;7.23;6.40;;;14.40;20.90;;;;;;5016358;28;20447;-65
2021/03/29 08:37:25;;;;;;;14.20;8.83;;;14.50;21.20;;;;;;5017204;28;20459;-66
2021/03/29 08:39:53;;;;;;;6.97;5.73;;;14.60;21.20;;;;;;5017773;28;20869;-65
2021/03/29 08:42:21;;;;;;;14.70;11.53;;;14.60;21.30;;;;;;5018398;28;20853;-66
2021/03/29 08:44:50;;;;;;;7.70;7.00;;;14.60;21.30;;;;;;5015726;28;20455;-63
2021/03/29 08:47:22;;;;;;;8.23;5.63;;;14.70;20.50;;;;;;5017429;28;20458;-65
2021/03/29 08:49:54;;;;;;;35.47;27.50;;;14.80;20.10;;;;;;5017647;28;20470;-65
2021/03/29 08:52:20;;;;;;;10.97;5.20;;;14.90;19.60;;;;;;5017072;28;20450;-65
2021/03/29 08:54:48;;;;;;;6.60;6.00;;;14.90;19.80;;;;;;5018449;28;21302;-65
2021/03/29 08:57:13;;;;;;;7.03;6.43;;;15.00;20.50;;;;;;5017961;28;20514;-65
2021/03/29 08:59:39;;;;;;;8.93;5.60;;;15.10;21.00;;;;;;5016794;28;20977;-65
2021/03/29 09:02:15;;;;;;;6.13;4.27;;;15.30;20.60;;;;;;5017394;28;20695;-66
2021/03/29 09:04:57;;;;;;;9.37;5.20;;;15.40;19.10;;;;;;5016877;28;20243;-65
2021/03/29 09:07:43;;;;;;;24.77;7.43;;;15.60;18.60;;;;;;5017146;28;20470;-65
2021/03/29 09:10:21;;;;;;;27.20;7.40;;;15.70;19.20;;;;;;5016149;28;20509;-65
2021/03/29 09:12:54;;;;;;;6.97;4.33;;;15.80;19.50;;;;;;5017132;28;20481;-64
2021/03/29 09:15:20;;;;;;;7.03;5.57;;;15.90;18.90;;;;;;5017985;28;20458;-65
2021/03/29 09:17:55;;;;;;;11.40;9.77;;;15.90;19.70;;;;;;5017707;28;20817;-66
2021/03/29 09:20:23;;;;;;;5.53;5.00;;;16.00;19.00;;;;;;5017917;28;20442;-66
2021/03/29 09:22:48;;;;;;;35.73;7.17;;;16.10;19.00;;;;;;5016879;28;20593;-66
2021/03/29 09:25:33;;;;;;;10.17;4.37;;;16.10;19.10;;;;;;5016901;28;21051;-65
2021/03/29 09:28:41;;;;;;;8.20;3.70;;;16.20;18.00;;;;;;5014878;28;20695;-66
2021/03/29 09:31:09;;;;;;;5.00;3.30;;;16.30;17.60;;;;;;5016229;28;20532;-65
2021/03/29 09:33:35;;;;;;;9.40;3.73;;;16.40;17.00;;;;;;5017718;28;20542;-64
2021/03/29 09:36:10;;;;;;;4.77;3.90;;;16.50;17.00;;;;;;5016598;28;20459;-65
2021/03/29 09:38:40;;;;;;;4.30;3.00;;;16.60;15.90;;;;;;5016995;28;20934;-65
2021/03/29 09:41:22;;;;;;;5.27;4.20;;;16.70;17.20;;;;;;5016627;28;20451;-65
2021/03/29 09:43:50;;;;;;;4.93;3.10;;;16.90;16.90;;;;;;5015547;28;20462;-66
2021/03/29 09:46:17;;;;;;;5.67;3.37;;;17.10;16.40;;;;;;5015873;28;20517;-66
2021/03/29 09:48:43;;;;;;;4.40;3.03;;;17.20;14.20;;;;;;5015751;28;20459;-67
2021/03/29 09:51:23;;;;;;;5.37;2.90;;;17.30;14.90;;;;;;5016120;28;20547;-67
2021/03/29 09:53:49;;;;;;;6.03;2.83;;;17.40;13.60;;;;;;5015755;28;20833;-67
2021/03/29 09:56:33;;;;;;;2.90;2.10;;;17.50;12.90;;;;;;5015516;28;20443;-66
2021/03/29 09:58:59;;;;;;;3.37;3.07;;;17.70;13.30;;;;;;5015229;28;20450;-67
2021/03/29 10:01:26;;;;;;;3.53;2.87;;;17.90;11.70;;;;;;5016980;28;20530;-65
2021/03/29 10:03:54;;;;;;;3.80;3.37;;;18.00;11.80;;;;;;5017286;28;20456;-66
2021/03/29 10:06:21;;;;;;;2.50;2.20;;;18.20;11.90;;;;;;5015522;28;20517;-66
2021/03/29 10:09:07;;;;;;;2.80;2.40;;;18.40;11.20;;;;;;5014255;28;20858;-66
2021/03/29 10:11:46;;;;;;;4.50;3.03;;;18.50;11.90;;;;;;5015948;28;20466;-64
2021/03/29 10:14:15;;;;;;;2.93;2.20;;;18.60;10.70;;;;;;5016677;28;20497;-64
2021/03/29 10:16:49;;;;;;;6.90;4.13;;;18.70;10.90;;;;;;5015818;28;20533;-64
2021/03/29 10:19:17;;;;;;;6.37;4.10;;;18.80;13.60;;;;;;5014276;28;20439;-64
2021/03/29 10:22:02;;;;;;;21.60;5.70;;;18.80;14.60;;;;;;5016376;28;20530;-65
2021/03/29 10:24:28;;;;;;;13.23;4.57;;;18.90;13.90;;;;;;5016057;28;20447;-64
2021/03/29 10:26:55;;;;;;;15.93;4.07;;;19.00;13.80;;;;;;5000141;28;20507;-63
2021/03/29 10:29:39;;;;;;;6.00;3.33;;;19.10;13.10;;;;;;5013838;28;20315;-65
2021/03/29 10:32:16;;;;;;;9.30;3.63;;;19.30;12.60;;;;;;4996605;28;20443;-65
2021/03/29 10:34:44;;;;;;;3.67;3.37;;;19.10;11.70;;;;;;4995579;28;20984;-67
2021/03/29 10:37:29;;;;;;;5.87;2.93;;;19.10;12.50;;;;;;5011242;28;20962;-65
2021/03/29 10:39:56;;;;;;;3.50;3.20;;;19.10;13.20;;;;;;5015712;28;20443;-66
2021/03/29 10:42:24;;;;;;;4.20;2.93;;;19.20;11.90;;;;;;5015266;28;20525;-66
2021/03/29 10:44:51;;;;;;;5.23;3.87;;;19.40;11.60;;;;;;5015317;28;20451;-67
2021/03/29 10:47:17;;;;;;;13.00;4.40;;;19.50;12.80;;;;;;5013792;28;20462;-66
2021/03/29 10:49:44;;;;;;;8.67;4.77;;;19.70;13.00;;;;;;5013789;28;20464;-66
2021/03/29 10:52:10;;;;;;;4.63;3.00;;;19.80;12.90;;;;;;5015582;28;20456;-67
2021/03/29 10:54:36;;;;;;;3.93;3.43;;;19.90;12.10;;;;;;5015262;28;20451;-65
2021/03/29 10:57:02;;;;;;;4.30;3.57;;;19.90;11.00;;;;;;5014242;28;20447;-66
2021/03/29 10:59:27;;;;;;;6.97;3.40;;;20.00;11.20;;;;;;5013861;28;20474;-66
2021/03/29 11:01:53;;;;;;;4.43;3.10;;;20.10;11.50;;;;;;5016226;28;20471;-66
2021/03/29 11:04:18;;;;;;;9.27;3.10;;;20.30;10.00;;;;;;5014899;28;20234;-66
2021/03/29 11:06:44;;;;;;;18.60;4.17;;;20.30;10.00;;;;;;5014792;28;20597;-65
2021/03/29 11:09:10;;;;;;;10.93;4.10;;;20.40;10.10;;;;;;5014409;28;20227;-68
2021/03/29 11:11:36;;;;;;;3.23;2.93;;;20.60;10.00;;;;;;5014344;28;20315;-66
2021/03/29 11:14:02;;;;;;;3.00;2.80;;;20.60;10.90;;;;;;5001185;28;20310;-66
2021/03/29 11:16:28;;;;;;;5.27;3.33;;;20.70;16.70;;;;;;4994053;28;20444;-66
2021/03/29 11:18:53;;;;;;;3.60;3.00;;;20.70;13.80;;;;;;4997623;28;21037;-66
2021/03/29 11:21:19;;;;;;;2.97;2.77;;;20.80;10.80;;;;;;5014623;28;20242;-64
2021/03/29 11:23:45;;;;;;;6.53;3.47;;;21.10;14.50;;;;;;5013445;28;20224;-65
2021/03/29 11:26:11;;;;;;;4.20;3.20;;;21.30;15.50;;;;;;5014337;28;20513;-66
2021/03/29 11:28:36;;;;;;;4.33;3.00;;;21.30;12.20;;;;;;5014260;28;20303;-65
2021/03/29 11:31:02;;;;;;;3.30;3.00;;;21.30;11.40;;;;;;5014557;28;20228;-65
2021/03/29 11:33:28;;;;;;;4.47;3.10;;;21.30;8.40;;;;;;5011600;28;20263;-65
2021/03/29 11:35:54;;;;;;;4.37;2.50;;;21.40;7.80;;;;;;5009731;28;20898;-65
2021/03/29 11:38:19;;;;;;;3.10;2.80;;;21.40;6.40;;;;;;5010518;28;20309;-65
2021/03/29 11:40:45;;;;;;;2.93;2.63;;;21.50;8.10;;;;;;5011354;28;20302;-64
2021/03/29 11:43:10;;;;;;;2.90;2.70;;;21.70;7.60;;;;;;5013825;28;20290;-65
2021/03/29 11:45:36;;;;;;;3.30;3.00;;;21.80;7.20;;;;;;5014855;28;20242;-65
2021/03/29 11:48:02;;;;;;;7.97;3.40;;;21.90;7.20;;;;;;5013743;28;20224;-63
2021/03/29 11:50:28;;;;;;;3.87;2.80;;;21.90;6.70;;;;;;5012830;28;20232;-65
2021/03/29 11:52:53;;;;;;;17.17;4.03;;;22.00;7.10;;;;;;5015466;28;20642;-64
2021/03/29 11:55:19;;;;;;;12.77;4.50;;;22.20;7.50;;;;;;5015041;28;20236;-65
2021/03/29 11:57:45;;;;;;;13.80;4.10;;;22.40;7.30;;;;;;5015116;28;20263;-65
2021/03/29 12:00:58;;;;;;;3.83;2.80;;;22.30;6.60;;;;;;5014196;28;20461;-64
2021/03/29 12:05:33;;;;;;;6.00;2.60;;;21.80;6.80;;;;;;5014486;28;20451;-65
2021/03/29 12:08:12;;;;;;;3.57;2.73;;;21.50;6.80;;;;;;5014653;28;20232;-65
2021/03/29 12:13:23;;;;;;;8.53;7.47;;;21.10;6.70;;;;;;5018930;28;20564;-64
2021/03/29 12:15:51;;;;;;;3.33;2.70;;;21.00;7.10;;;;;;5007053;28;20455;-64
2021/03/29 12:18:21;;;;;;;7.53;3.23;;;21.00;6.70;;;;;;5009621;28;20478;-64
2021/03/29 12:20:47;;;;;;;3.93;2.77;;;20.80;7.20;;;;;;5017460;28;20961;-64
2021/03/29 12:23:16;;;;;;;3.60;2.60;;;20.90;6.80;;;;;;5018081;28;20934;-64
2021/03/29 12:25:47;;;;;;;2.73;2.37;;;21.00;7.30;;;;;;5017357;28;20965;-63
2021/03/29 12:28:13;;;;;;;2.80;2.33;;;20.90;6.50;;;;;;4997545;28;21009;-65
2021/03/29 12:30:40;;;;;;;2.93;2.73;;;20.90;7.50;;;;;;4997277;28;20460;-64
2021/03/29 12:33:06;;;;;;;3.77;2.70;;;20.90;6.80;;;;;;5004382;28;20470;-65
2021/03/29 12:35:32;;;;;;;2.80;2.60;;;20.90;6.70;;;;;;5017697;28;20593;-63
2021/03/29 12:37:59;;;;;;;2.93;2.70;;;20.80;7.00;;;;;;5004845;28;20970;-64
2021/03/29 12:40:27;;;;;;;5.50;2.37;;;20.80;7.00;;;;;;5017800;28;20470;-64
2021/03/29 12:45:27;;;;;;;6.40;3.10;;;20.90;8.10;;;;;;4997116;28;20456;-65
2021/03/29 12:47:56;;;;;;;4.90;2.47;;;20.80;7.50;;;;;;5003626;28;20993;-64
2021/03/29 12:50:23;;;;;;;5.10;3.50;;;20.90;8.10;;;;;;5018178;28;20517;-63
2021/03/29 12:52:49;;;;;;;6.53;4.00;;;20.90;7.90;;;;;;5019476;28;20459;-64
2021/03/29 12:55:17;;;;;;;9.93;3.70;;;20.80;8.40;;;;;;5017258;28;20446;-64
2021/03/29 12:57:46;;;;;;;14.43;6.47;;;20.70;7.80;;;;;;5012266;28;20229;-63
2021/03/29 13:00:17;;;;;;;45.97;9.30;;;20.80;7.30;;;;;;5010065;28;20463;-64
2021/03/29 13:02:44;;;;;;;53.77;11.27;;;20.80;8.30;;;;;;5010586;28;20475;-65
2021/03/29 13:05:13;;;;;;;5.40;3.17;;;20.70;7.50;;;;;;5010039;28;20621;-65
2021/03/29 13:08:05;;;;;;;6.97;3.30;;;20.70;6.70;;;;;;5006720;28;20451;-64